Time;durP1;ratioP1;P1;durP2;ratioP2;P2;SDS_P1;SDS_P2;PMS_P1;PMS_P2;Temp;Humidity;BMP_temperature;BMP_pressure;BME280_temperature;BME280_humidity;BME280_pressure;Samples;Min_cycle;Max_cycle;Signal;HPM_P1;HPM_P2
2023/06/14 00:02:07;;;;;;;57.37;2.50;;;;;;;;;;5062582;28;20472;-69
2023/06/14 00:04:36;;;;;;;57.47;2.37;;;;;;;;;;5052048;28;20456;-69
2023/06/14 00:07:03;;;;;;;57.47;2.67;;;;;;;;;;5052114;28;20455;-68
2023/06/14 00:09:30;;;;;;;57.27;2.30;;;;;;;;;;5051462;28;20452;-69
2023/06/14 00:11:57;;;;;;;57.20;2.40;;;;;;;;;;5053201;28;20445;-69
2023/06/14 00:14:24;;;;;;;57.03;2.40;;;;;;;;;;5052895;28;20472;-69
2023/06/14 00:16:52;;;;;;;57.23;2.87;;;;;;;;;;5068703;28;20450;-69
2023/06/14 00:19:20;;;;;;;57.13;2.30;;;;;;;;;;5057910;28;20554;-69
2023/06/14 00:21:50;;;;;;;57.23;2.47;;;;;;;;;;5051618;28;20992;-69
2023/06/14 00:24:17;;;;;;;57.27;2.60;;;;;;;;;;5051790;28;20825;-68
2023/06/14 00:26:44;;;;;;;56.83;2.20;;;;;;;;;;5051789;28;20479;-68
2023/06/14 00:29:11;;;;;;;57.70;3.17;;;;;;;;;;5052070;28;20870;-68
2023/06/14 00:31:38;;;;;;;57.27;2.43;;;;;;;;;;5055260;28;20470;-69
2023/06/14 00:34:05;;;;;;;57.17;2.70;;;;;;;;;;5065376;28;21027;-67
2023/06/14 00:36:32;;;;;;;57.17;2.60;;;;;;;;;;5051678;28;20822;-69
2023/06/14 00:39:01;;;;;;;57.37;2.50;;;;;;;;;;5051609;28;20448;-68
2023/06/14 00:41:28;;;;;;;57.83;3.33;;;;;;;;;;5051394;28;20460;-69
2023/06/14 00:43:56;;;;;;;57.07;2.50;;;;;;;;;;5051597;28;20472;-69
2023/06/14 00:46:26;;;;;;;57.07;2.23;;;;;;;;;;5050845;28;20448;-69
2023/06/14 00:48:54;;;;;;;57.47;2.40;;;;;;;;;;5060088;28;20456;-69
2023/06/14 00:51:21;;;;;;;57.27;2.27;;;;;;;;;;5071584;28;20473;-69
2023/06/14 00:53:48;;;;;;;57.10;2.50;;;;;;;;;;5067643;28;20480;-69
2023/06/14 00:56:20;;;;;;;57.23;2.23;;;;;;;;;;5051101;28;20494;-69
2023/06/14 00:58:47;;;;;;;57.37;2.67;;;;;;;;;;5050430;28;20456;-69
2023/06/14 01:01:15;;;;;;;57.30;2.20;;;;;;;;;;5051410;28;20464;-69
2023/06/14 01:03:42;;;;;;;57.30;2.70;;;;;;;;;;5070989;28;20975;-69
2023/06/14 01:06:15;;;;;;;58.07;4.00;;;;;;;;;;5071181;28;20443;-69
2023/06/14 01:08:45;;;;;;;57.10;2.30;;;;;;;;;;5068905;28;20991;-68
2023/06/14 01:11:13;;;;;;;57.17;2.80;;;;;;;;;;5053624;28;20443;-69
2023/06/14 01:13:45;;;;;;;57.50;2.57;;;;;;;;;;5054003;28;20471;-68
2023/06/14 01:16:12;;;;;;;57.50;2.33;;;;;;;;;;5070960;28;20823;-68
2023/06/14 01:18:41;;;;;;;57.67;2.40;;;;;;;;;;5054218;28;20464;-69
2023/06/14 01:21:21;;;;;;;57.80;2.70;;;;;;;;;;5050905;28;20933;-69
2023/06/14 01:23:52;;;;;;;57.40;2.40;;;;;;;;;;5050726;28;20472;-69
2023/06/14 01:26:19;;;;;;;57.53;2.70;;;;;;;;;;5051008;28;20455;-68
2023/06/14 01:28:48;;;;;;;57.27;2.40;;;;;;;;;;5051808;28;20452;-68
2023/06/14 01:31:16;;;;;;;57.30;2.87;;;;;;;;;;5069826;28;20447;-68
2023/06/14 01:33:43;;;;;;;57.47;2.83;;;;;;;;;;5051938;28;20459;-69
2023/06/14 01:36:11;;;;;;;57.10;2.40;;;;;;;;;;5050597;28;20448;-69
2023/06/14 01:38:38;;;;;;;57.07;2.40;;;;;;;;;;5051127;28;20441;-69
2023/06/14 01:41:07;;;;;;;57.40;2.40;;;;;;;;;;5050914;28;20458;-69
2023/06/14 01:43:34;;;;;;;57.07;2.13;;;;;;;;;;5050552;28;20492;-69
2023/06/14 01:46:02;;;;;;;58.27;2.87;;;;;;;;;;5050644;28;20448;-69
2023/06/14 01:48:29;;;;;;;57.10;2.30;;;;;;;;;;5057143;28;20813;-68
2023/06/14 01:50:56;;;;;;;57.40;2.30;;;;;;;;;;5050305;28;20547;-69
2023/06/14 01:53:23;;;;;;;57.57;2.50;;;;;;;;;;5050881;28;20463;-69
2023/06/14 01:55:50;;;;;;;57.10;2.33;;;;;;;;;;5070406;28;20467;-68
2023/06/14 01:58:18;;;;;;;57.23;2.43;;;;;;;;;;5068029;28;20454;-69
2023/06/14 02:00:47;;;;;;;57.40;2.63;;;;;;;;;;5071954;28;20459;-68
2023/06/14 02:03:15;;;;;;;57.30;2.40;;;;;;;;;;5057234;28;20498;-68
2023/06/14 02:05:42;;;;;;;57.57;2.60;;;;;;;;;;5054451;28;20499;-68
2023/06/14 02:08:09;;;;;;;57.30;2.30;;;;;;;;;;5054309;28;20444;-68
2023/06/14 02:10:36;;;;;;;57.50;2.60;;;;;;;;;;5054677;28;20535;-68
2023/06/14 02:13:03;;;;;;;57.57;2.60;;;;;;;;;;5054077;28;20460;-69
2023/06/14 02:15:33;;;;;;;57.33;2.27;;;;;;;;;;5072225;28;20443;-68
2023/06/14 02:18:01;;;;;;;57.20;2.50;;;;;;;;;;5072672;28;20436;-69
2023/06/14 02:20:29;;;;;;;57.40;2.37;;;;;;;;;;5073284;28;20447;-68
2023/06/14 02:22:56;;;;;;;57.30;2.47;;;;;;;;;;5074319;28;20497;-69
2023/06/14 02:25:23;;;;;;;58.57;3.43;;;;;;;;;;5073602;28;20454;-68
2023/06/14 02:27:50;;;;;;;57.23;2.57;;;;;;;;;;5074186;28;20439;-69
2023/06/14 02:30:17;;;;;;;57.27;2.30;;;;;;;;;;5071159;28;20956;-69
2023/06/14 02:32:45;;;;;;;57.23;2.20;;;;;;;;;;5060934;28;20673;-69
2023/06/14 02:35:13;;;;;;;57.50;2.37;;;;;;;;;;5069027;28;20451;-68
2023/06/14 02:37:40;;;;;;;57.17;2.40;;;;;;;;;;5073622;28;20486;-69
2023/06/14 02:40:08;;;;;;;57.60;2.70;;;;;;;;;;5071126;28;20452;-68
2023/06/14 02:42:35;;;;;;;57.37;2.40;;;;;;;;;;5073195;28;20487;-69
2023/06/14 02:45:04;;;;;;;57.17;2.47;;;;;;;;;;5073469;28;20454;-68
2023/06/14 02:47:31;;;;;;;57.60;2.97;;;;;;;;;;5073888;28;20447;-69
2023/06/14 02:49:59;;;;;;;57.20;2.53;;;;;;;;;;5070795;28;20447;-68
2023/06/14 02:52:26;;;;;;;57.27;2.60;;;;;;;;;;5073697;28;20467;-69
2023/06/14 02:54:53;;;;;;;57.27;2.50;;;;;;;;;;5061031;28;20457;-69
2023/06/14 02:57:21;;;;;;;57.30;2.50;;;;;;;;;;5053065;28;20513;-69
2023/06/14 02:59:49;;;;;;;57.33;2.50;;;;;;;;;;5053560;28;20527;-69
2023/06/14 03:02:16;;;;;;;57.00;2.50;;;;;;;;;;5061168;28;20486;-68
2023/06/14 03:04:44;;;;;;;57.30;2.43;;;;;;;;;;5073675;28;20451;-68
2023/06/14 03:07:13;;;;;;;57.47;2.50;;;;;;;;;;5072858;28;20546;-69
2023/06/14 03:09:40;;;;;;;57.40;2.80;;;;;;;;;;5070129;28;20470;-68
2023/06/14 03:12:09;;;;;;;61.37;3.07;;;;;;;;;;5072740;28;20455;-69
2023/06/14 03:14:36;;;;;;;57.47;2.67;;;;;;;;;;5062531;28;20468;-69
2023/06/14 03:17:04;;;;;;;57.37;2.70;;;;;;;;;;5053324;28;20444;-69
2023/06/14 03:19:31;;;;;;;57.17;2.50;;;;;;;;;;5053098;28;20457;-68
2023/06/14 03:21:58;;;;;;;57.27;2.30;;;;;;;;;;5052763;28;20452;-68
2023/06/14 03:24:28;;;;;;;57.27;2.33;;;;;;;;;;5052973;28;20538;-68
2023/06/14 03:26:56;;;;;;;57.23;2.40;;;;;;;;;;5052758;28;20828;-69
2023/06/14 03:29:23;;;;;;;57.37;2.40;;;;;;;;;;5053147;28;20822;-69
2023/06/14 03:32:00;;;;;;;57.27;2.53;;;;;;;;;;5053151;28;20447;-68
2023/06/14 03:34:27;;;;;;;57.37;2.40;;;;;;;;;;5061534;28;20447;-69
2023/06/14 03:36:55;;;;;;;57.20;2.30;;;;;;;;;;5072544;28;20451;-68
2023/06/14 03:39:22;;;;;;;57.13;2.40;;;;;;;;;;5070457;28;20462;-69
2023/06/14 03:41:50;;;;;;;57.30;2.27;;;;;;;;;;5072090;28;21019;-69
2023/06/14 03:44:18;;;;;;;57.40;2.90;;;;;;;;;;5072364;28;20494;-69
2023/06/14 03:46:45;;;;;;;57.30;2.33;;;;;;;;;;5072092;28;20451;-68
2023/06/14 03:49:12;;;;;;;57.10;2.30;;;;;;;;;;5069882;28;20971;-69
2023/06/14 03:51:40;;;;;;;57.13;2.23;;;;;;;;;;5072322;28;20459;-68
2023/06/14 03:54:07;;;;;;;57.37;2.53;;;;;;;;;;5066259;28;20483;-68
2023/06/14 03:56:35;;;;;;;57.23;2.40;;;;;;;;;;5054594;28;21021;-69
2023/06/14 03:59:04;;;;;;;57.47;2.40;;;;;;;;;;5067415;28;20456;-68
2023/06/14 04:01:33;;;;;;;57.67;2.43;;;;;;;;;;5054482;28;20890;-68
2023/06/14 04:04:00;;;;;;;57.30;2.40;;;;;;;;;;5071994;28;20491;-68
2023/06/14 04:06:32;;;;;;;57.27;2.50;;;;;;;;;;5072369;28;20807;-69
2023/06/14 04:09:02;;;;;;;57.23;2.50;;;;;;;;;;5071342;28;20523;-69
2023/06/14 04:11:29;;;;;;;57.33;2.70;;;;;;;;;;5069876;28;20451;-69
2023/06/14 04:13:57;;;;;;;59.60;2.80;;;;;;;;;;5066840;28;20476;-68
2023/06/14 04:16:25;;;;;;;57.50;3.17;;;;;;;;;;5062916;28;20452;-68
2023/06/14 04:18:53;;;;;;;57.27;2.50;;;;;;;;;;5071516;28;20462;-68
2023/06/14 04:21:20;;;;;;;56.97;2.40;;;;;;;;;;5070879;28;20486;-68
2023/06/14 04:23:48;;;;;;;57.40;2.30;;;;;;;;;;5071590;28;20487;-68
2023/06/14 04:26:15;;;;;;;57.40;2.57;;;;;;;;;;5069726;28;20462;-68
2023/06/14 04:28:45;;;;;;;57.07;2.43;;;;;;;;;;5070870;28;20509;-69
2023/06/14 04:31:12;;;;;;;57.03;2.30;;;;;;;;;;5071048;28;20546;-67
2023/06/14 04:33:45;;;;;;;57.20;2.23;;;;;;;;;;5053158;28;20469;-69
2023/06/14 04:36:12;;;;;;;57.27;2.40;;;;;;;;;;5071383;28;20971;-68
2023/06/14 04:38:39;;;;;;;57.17;2.20;;;;;;;;;;5070936;28;20783;-69
2023/06/14 04:41:09;;;;;;;57.20;2.37;;;;;;;;;;5071722;28;20533;-69
2023/06/14 04:43:37;;;;;;;58.00;2.57;;;;;;;;;;5071218;28;20483;-69
2023/06/14 04:46:08;;;;;;;57.00;2.07;;;;;;;;;;5064126;28;20543;-68
2023/06/14 04:48:35;;;;;;;57.40;2.70;;;;;;;;;;5055684;28;20443;-68
2023/06/14 04:51:03;;;;;;;57.13;2.50;;;;;;;;;;5057043;28;20453;-69
2023/06/14 04:53:31;;;;;;;57.27;3.07;;;;;;;;;;5051505;28;20472;-68
2023/06/14 04:55:58;;;;;;;57.20;2.37;;;;;;;;;;5060109;28;20870;-69
2023/06/14 04:58:25;;;;;;;57.07;2.30;;;;;;;;;;5071544;28;20493;-69
2023/06/14 05:00:53;;;;;;;57.07;2.20;;;;;;;;;;5068869;28;20455;-69
2023/06/14 05:03:20;;;;;;;58.23;3.80;;;;;;;;;;5053417;28;21061;-68
2023/06/14 05:05:48;;;;;;;57.17;2.37;;;;;;;;;;5052037;28;20452;-69
2023/06/14 05:08:16;;;;;;;57.17;2.53;;;;;;;;;;5051007;28;20953;-68
2023/06/14 05:10:43;;;;;;;57.20;2.20;;;;;;;;;;5050558;28;20468;-68
2023/06/14 05:13:11;;;;;;;57.53;3.07;;;;;;;;;;5051229;28;20460;-68
2023/06/14 05:15:38;;;;;;;57.30;2.60;;;;;;;;;;5053732;28;20998;-68
2023/06/14 05:18:08;;;;;;;58.47;4.10;;;;;;;;;;5050904;28;20448;-69
2023/06/14 05:20:36;;;;;;;57.80;2.60;;;;;;;;;;5050226;28;21007;-68
2023/06/14 05:23:04;;;;;;;56.87;2.23;;;;;;;;;;5050930;28;20530;-68
2023/06/14 05:25:32;;;;;;;57.00;2.30;;;;;;;;;;5050727;28;20455;-68
2023/06/14 05:28:00;;;;;;;56.87;2.13;;;;;;;;;;5051061;28;20451;-69
2023/06/14 05:30:29;;;;;;;57.07;2.30;;;;;;;;;;5050243;28;20453;-69
2023/06/14 05:32:56;;;;;;;57.50;2.70;;;;;;;;;;5052763;28;20472;-69
2023/06/14 05:35:26;;;;;;;58.37;3.70;;;;;;;;;;5055283;28;20456;-68
2023/06/14 05:37:53;;;;;;;57.00;2.40;;;;;;;;;;5055308;28;20538;-69
2023/06/14 05:40:20;;;;;;;56.87;2.40;;;;;;;;;;5054390;28;20979;-68
2023/06/14 05:42:49;;;;;;;56.90;2.30;;;;;;;;;;5055062;28;20475;-68
2023/06/14 05:45:16;;;;;;;59.30;3.30;;;;;;;;;;5054708;28;20471;-68
2023/06/14 05:47:43;;;;;;;57.10;2.50;;;;;;;;;;5054792;28;20506;-68
2023/06/14 05:50:11;;;;;;;57.37;2.37;;;;;;;;;;5053938;28;20452;-69
2023/06/14 05:52:38;;;;;;;58.23;3.00;;;;;;;;;;5054702;28;20479;-68
2023/06/14 05:55:05;;;;;;;57.20;2.47;;;;;;;;;;5054427;28;20975;-68
2023/06/14 05:57:33;;;;;;;57.73;2.47;;;;;;;;;;5054431;28;20443;-69
2023/06/14 06:00:05;;;;;;;56.97;2.50;;;;;;;;;;5053713;28;20773;-69
2023/06/14 06:02:32;;;;;;;56.87;2.20;;;;;;;;;;5054628;28;20472;-69
2023/06/14 06:04:59;;;;;;;57.07;3.20;;;;;;;;;;5054498;28;20487;-69
2023/06/14 06:07:26;;;;;;;57.00;2.40;;;;;;;;;;5054269;28;20454;-68
2023/06/14 06:09:53;;;;;;;56.90;2.40;;;;;;;;;;5053516;28;20451;-68
2023/06/14 06:12:20;;;;;;;57.27;2.50;;;;;;;;;;5054054;28;20483;-68
2023/06/14 06:14:47;;;;;;;57.07;2.80;;;;;;;;;;5054353;28;20808;-69
2023/06/14 06:17:16;;;;;;;57.07;3.13;;;;;;;;;;5054197;28;20819;-68
2023/06/14 06:19:43;;;;;;;57.53;2.90;;;;;;;;;;5053234;28;20964;-68
2023/06/14 06:22:10;;;;;;;57.57;2.93;;;;;;;;;;5054028;28;21092;-69
2023/06/14 06:24:37;;;;;;;57.70;2.60;;;;;;;;;;5053933;28;20598;-69
2023/06/14 06:27:05;;;;;;;58.17;3.00;;;;;;;;;;5054200;28;20456;-69
2023/06/14 06:29:32;;;;;;;57.33;2.70;;;;;;;;;;5053514;28;20444;-69
2023/06/14 06:31:59;;;;;;;57.40;3.40;;;;;;;;;;5054054;28;20452;-68
2023/06/14 06:34:27;;;;;;;57.60;2.80;;;;;;;;;;5054011;28;20451;-69
2023/06/14 06:36:55;;;;;;;57.17;2.50;;;;;;;;;;5053586;28;20959;-69
2023/06/14 06:39:22;;;;;;;57.50;3.10;;;;;;;;;;5052948;28;20460;-69
2023/06/14 06:41:49;;;;;;;57.50;2.80;;;;;;;;;;5053476;28;20463;-69
2023/06/14 06:44:16;;;;;;;57.10;2.30;;;;;;;;;;5052830;28;20488;-68
2023/06/14 06:46:43;;;;;;;56.97;2.40;;;;;;;;;;5053410;28;20952;-69
2023/06/14 06:49:11;;;;;;;57.00;2.47;;;;;;;;;;5052794;28;20964;-69
2023/06/14 06:51:42;;;;;;;57.47;2.77;;;;;;;;;;5053127;28;20459;-69
2023/06/14 06:54:10;;;;;;;56.93;2.30;;;;;;;;;;5053192;28;20468;-68
2023/06/14 06:56:37;;;;;;;57.40;2.90;;;;;;;;;;5053155;28;20468;-69
2023/06/14 06:59:04;;;;;;;57.27;2.73;;;;;;;;;;5052840;28;20459;-68
2023/06/14 07:01:33;;;;;;;57.10;2.40;;;;;;;;;;5052940;28;20445;-69
2023/06/14 07:04:00;;;;;;;57.27;2.33;;;;;;;;;;5052924;28;20562;-68
2023/06/14 07:06:28;;;;;;;57.20;2.30;;;;;;;;;;5053277;28;20445;-69
2023/06/14 07:09:01;;;;;;;57.23;2.67;;;;;;;;;;5052560;28;20505;-69
2023/06/14 07:11:28;;;;;;;57.10;2.67;;;;;;;;;;5053222;28;20457;-69
2023/06/14 07:13:55;;;;;;;57.10;2.70;;;;;;;;;;5053192;28;20480;-68
2023/06/14 07:16:22;;;;;;;57.00;2.30;;;;;;;;;;5052770;28;20457;-68
2023/06/14 07:18:49;;;;;;;56.80;2.10;;;;;;;;;;5052478;28;20832;-68
2023/06/14 07:21:16;;;;;;;57.47;2.50;;;;;;;;;;5052713;28;20456;-68
2023/06/14 07:23:43;;;;;;;56.83;2.20;;;;;;;;;;5052678;28;20480;-68
2023/06/14 07:26:12;;;;;;;57.80;2.70;;;;;;;;;;5052913;28;20558;-68
2023/06/14 07:28:39;;;;;;;57.10;2.40;;;;;;;;;;5052098;28;20452;-68
2023/06/14 07:31:06;;;;;;;57.20;2.60;;;;;;;;;;5052903;28;20825;-68
2023/06/14 07:33:33;;;;;;;57.10;2.43;;;;;;;;;;5052781;28;20464;-69
2023/06/14 07:36:01;;;;;;;56.80;2.20;;;;;;;;;;5052359;28;20933;-68
2023/06/14 07:38:28;;;;;;;57.20;2.70;;;;;;;;;;5052270;28;20495;-68
2023/06/14 07:40:55;;;;;;;56.67;2.13;;;;;;;;;;5052189;28;20455;-68
2023/06/14 07:43:24;;;;;;;57.03;2.43;;;;;;;;;;5052533;28;20551;-68
2023/06/14 07:45:51;;;;;;;58.57;3.30;;;;;;;;;;5052214;28;20448;-68
2023/06/14 07:48:18;;;;;;;57.03;2.43;;;;;;;;;;5052191;28;20456;-68
2023/06/14 07:50:45;;;;;;;57.23;2.50;;;;;;;;;;5051493;28;20448;-68
2023/06/14 07:53:12;;;;;;;56.93;2.50;;;;;;;;;;5051513;28;20471;-68
2023/06/14 07:55:39;;;;;;;57.67;3.17;;;;;;;;;;5052010;28;20483;-69
2023/06/14 07:58:06;;;;;;;57.27;2.43;;;;;;;;;;5052460;28;20437;-68
2023/06/14 08:00:35;;;;;;;57.70;3.00;;;;;;;;;;5051813;28;20451;-68
2023/06/14 08:03:02;;;;;;;57.10;2.50;;;;;;;;;;5051879;28;20477;-68
2023/06/14 08:05:29;;;;;;;57.17;2.67;;;;;;;;;;5052309;28;20483;-68
2023/06/14 08:07:57;;;;;;;57.30;2.97;;;;;;;;;;5052060;28;20448;-68
2023/06/14 08:10:24;;;;;;;57.17;2.87;;;;;;;;;;5051347;28;20459;-68
2023/06/14 08:12:51;;;;;;;56.67;2.43;;;;;;;;;;5051888;28;20483;-69
2023/06/14 08:15:18;;;;;;;56.80;2.00;;;;;;;;;;5051957;28;20444;-68
2023/06/14 08:17:47;;;;;;;57.40;2.90;;;;;;;;;;5051807;28;20459;-68
2023/06/14 08:20:16;;;;;;;57.60;3.13;;;;;;;;;;5051325;28;20447;-68
2023/06/14 08:22:46;;;;;;;56.87;2.50;;;;;;;;;;5051932;28;20477;-69
2023/06/14 08:25:13;;;;;;;57.40;2.40;;;;;;;;;;5051853;28;21011;-68
2023/06/14 08:27:41;;;;;;;56.80;2.27;;;;;;;;;;5051822;28;20462;-68
2023/06/14 08:30:09;;;;;;;57.47;2.40;;;;;;;;;;5050984;28;20874;-69
2023/06/14 08:32:37;;;;;;;57.27;2.63;;;;;;;;;;5051584;28;20472;-68
2023/06/14 08:35:07;;;;;;;57.67;2.60;;;;;;;;;;5051545;28;20457;-68
2023/06/14 08:37:34;;;;;;;57.80;3.10;;;;;;;;;;5051434;28;20451;-69
2023/06/14 08:40:01;;;;;;;57.40;2.97;;;;;;;;;;5050607;28;20937;-68
2023/06/14 08:42:28;;;;;;;57.10;2.37;;;;;;;;;;5051222;28;20660;-69
2023/06/14 08:44:55;;;;;;;58.07;2.67;;;;;;;;;;5051337;28;20485;-68
2023/06/14 08:47:24;;;;;;;57.07;2.60;;;;;;;;;;5051261;28;20981;-69
2023/06/14 08:49:52;;;;;;;57.17;3.03;;;;;;;;;;5048086;28;20432;-69
2023/06/14 08:52:22;;;;;;;57.87;3.03;;;;;;;;;;5069764;28;20533;-68
2023/06/14 08:54:50;;;;;;;57.37;2.60;;;;;;;;;;5069652;28;20543;-69
2023/06/14 08:57:17;;;;;;;56.57;2.37;;;;;;;;;;5069353;28;20473;-68
2023/06/14 08:59:48;;;;;;;57.50;2.70;;;;;;;;;;5069715;28;20458;-71
2023/06/14 09:02:17;;;;;;;58.23;2.50;;;;;;;;;;5069984;28;20483;-69
2023/06/14 09:04:45;;;;;;;58.40;2.50;;;;;;;;;;5070034;28;20556;-68
2023/06/14 09:07:12;;;;;;;56.67;2.40;;;;;;;;;;5069671;28;20495;-69
2023/06/14 09:09:41;;;;;;;56.37;2.07;;;;;;;;;;5069200;28;20463;-69
2023/06/14 09:12:10;;;;;;;56.87;2.30;;;;;;;;;;5069641;28;20867;-69
2023/06/14 09:14:40;;;;;;;56.90;2.43;;;;;;;;;;5070131;28;20451;-67
2023/06/14 09:17:07;;;;;;;56.90;2.13;;;;;;;;;;5070296;28;20477;-67
2023/06/14 09:19:35;;;;;;;56.97;2.23;;;;;;;;;;5068916;28;20447;-69
2023/06/14 09:22:03;;;;;;;56.90;2.30;;;;;;;;;;5070609;28;20451;-67
2023/06/14 09:24:30;;;;;;;57.00;2.10;;;;;;;;;;5070558;28;20482;-68
2023/06/14 09:26:58;;;;;;;56.97;2.50;;;;;;;;;;5068441;28;20459;-70
2023/06/14 09:29:26;;;;;;;57.37;2.93;;;;;;;;;;5067085;28;20985;-67
2023/06/14 09:31:53;;;;;;;57.10;3.23;;;;;;;;;;5062414;28;20452;-67
2023/06/14 09:34:23;;;;;;;56.67;2.30;;;;;;;;;;5069809;28;20456;-67
2023/06/14 09:36:50;;;;;;;57.03;2.30;;;;;;;;;;5069930;28;20455;-67
2023/06/14 09:39:18;;;;;;;57.87;2.50;;;;;;;;;;5067303;28;20462;-67
2023/06/14 09:41:45;;;;;;;56.50;2.30;;;;;;;;;;5070389;28;20891;-67
2023/06/14 09:44:14;;;;;;;56.77;1.90;;;;;;;;;;5070587;28;20463;-68
2023/06/14 09:46:41;;;;;;;57.20;2.50;;;;;;;;;;5070666;28;20432;-67
2023/06/14 09:49:08;;;;;;;56.93;2.20;;;;;;;;;;5054344;28;20562;-67
2023/06/14 09:51:36;;;;;;;57.00;2.90;;;;;;;;;;5050737;28;20459;-68
2023/06/14 09:54:04;;;;;;;56.80;2.20;;;;;;;;;;5061193;28;20474;-69
2023/06/14 09:56:33;;;;;;;57.20;2.73;;;;;;;;;;5070180;28;20512;-72
2023/06/14 09:59:01;;;;;;;56.67;2.10;;;;;;;;;;5069485;28;20542;-71
2023/06/14 10:01:32;;;;;;;56.67;2.07;;;;;;;;;;5070020;28;20455;-71
2023/06/14 10:04:02;;;;;;;57.67;2.93;;;;;;;;;;5070568;28;20490;-71
2023/06/14 10:06:30;;;;;;;59.80;2.53;;;;;;;;;;5070266;28;20464;-71
2023/06/14 10:08:59;;;;;;;56.67;2.00;;;;;;;;;;5069859;28;20483;-71
2023/06/14 10:11:26;;;;;;;56.43;2.20;;;;;;;;;;5070586;28;20823;-72
2023/06/14 10:13:54;;;;;;;56.47;2.20;;;;;;;;;;5067511;28;20482;-72
2023/06/14 10:16:24;;;;;;;56.07;2.00;;;;;;;;;;5067977;28;20545;-72
2023/06/14 10:18:54;;;;;;;58.20;3.03;;;;;;;;;;5068976;28;20455;-71
2023/06/14 10:21:25;;;;;;;58.37;2.37;;;;;;;;;;5068998;28;20455;-72
2023/06/14 10:23:52;;;;;;;58.40;2.53;;;;;;;;;;5073634;28;20470;-71
2023/06/14 10:26:24;;;;;;;56.83;1.80;;;;;;;;;;5073739;28;20479;-69
2023/06/14 10:28:58;;;;;;;56.80;2.23;;;;;;;;;;5072860;28;20454;-68
2023/06/14 10:31:41;;;;;;;56.73;2.20;;;;;;;;;;5074019;28;20865;-69
2023/06/14 10:34:09;;;;;;;56.27;2.00;;;;;;;;;;5073764;28;20471;-68
2023/06/14 10:36:37;;;;;;;55.90;1.80;;;;;;;;;;5073265;28;20447;-69
2023/06/14 10:39:07;;;;;;;56.10;1.97;;;;;;;;;;5072276;28;20538;-70
2023/06/14 10:41:36;;;;;;;56.00;1.80;;;;;;;;;;5073232;28;20459;-70
2023/06/14 10:44:22;;;;;;;56.00;1.90;;;;;;;;;;5073257;28;20477;-68
2023/06/14 10:46:49;;;;;;;55.87;1.93;;;;;;;;;;5073223;28;20455;-69
2023/06/14 10:49:20;;;;;;;55.57;1.70;;;;;;;;;;5072738;28;20458;-70
2023/06/14 10:51:51;;;;;;;55.67;2.13;;;;;;;;;;5073360;28;20598;-70
2023/06/14 10:54:18;;;;;;;55.70;2.17;;;;;;;;;;5073422;28;20479;-70
2023/06/14 10:56:48;;;;;;;56.43;2.73;;;;;;;;;;5072726;28;20546;-69
2023/06/14 10:59:15;;;;;;;55.30;1.70;;;;;;;;;;5072048;28;20524;-69
2023/06/14 11:01:48;;;;;;;56.83;2.30;;;;;;;;;;5072587;28;20456;-68
2023/06/14 11:04:15;;;;;;;55.77;2.23;;;;;;;;;;5072648;28;20547;-70
2023/06/14 11:06:52;;;;;;;55.30;1.87;;;;;;;;;;5072641;28;20481;-69
2023/06/14 11:09:53;;;;;;;55.60;2.37;;;;;;;;;;5072161;28;20823;-69
2023/06/14 11:12:21;;;;;;;55.27;2.30;;;;;;;;;;5072662;28;20878;-68
2023/06/14 11:14:49;;;;;;;55.33;1.90;;;;;;;;;;5072891;28;20462;-69
2023/06/14 11:17:16;;;;;;;55.40;2.20;;;;;;;;;;5072368;28;20447;-69
2023/06/14 11:19:43;;;;;;;55.50;2.20;;;;;;;;;;5071903;28;20453;-69
2023/06/14 11:22:11;;;;;;;55.20;1.97;;;;;;;;;;5072295;28;20452;-69
2023/06/14 11:24:38;;;;;;;55.50;2.10;;;;;;;;;;5073046;28;20818;-69
2023/06/14 11:27:06;;;;;;;55.33;1.80;;;;;;;;;;5072196;28;20444;-69
2023/06/14 11:29:33;;;;;;;55.20;1.90;;;;;;;;;;5071700;28;20443;-69
2023/06/14 11:32:00;;;;;;;55.70;2.67;;;;;;;;;;5072110;28;20454;-70
2023/06/14 11:34:27;;;;;;;55.23;1.80;;;;;;;;;;5072665;28;20453;-69
2023/06/14 11:36:54;;;;;;;55.27;2.40;;;;;;;;;;5072234;28;20451;-69
2023/06/14 11:39:26;;;;;;;55.50;1.90;;;;;;;;;;5071449;28;20452;-69
2023/06/14 11:41:53;;;;;;;55.57;2.13;;;;;;;;;;5071818;28;20455;-67
2023/06/14 11:44:20;;;;;;;55.67;2.07;;;;;;;;;;5072605;28;20471;-67
2023/06/14 11:46:47;;;;;;;55.97;2.53;;;;;;;;;;5072227;28;21014;-67
2023/06/14 11:49:14;;;;;;;55.80;1.83;;;;;;;;;;5071710;28;20936;-68
2023/06/14 11:51:44;;;;;;;55.70;1.90;;;;;;;;;;5071850;28;20448;-67
2023/06/14 11:54:11;;;;;;;56.30;1.93;;;;;;;;;;5072379;28;20478;-67
2023/06/14 11:56:40;;;;;;;56.50;2.00;;;;;;;;;;5072368;28;20959;-67
2023/06/14 11:59:07;;;;;;;55.80;1.80;;;;;;;;;;5071663;28;20443;-67
2023/06/14 12:01:37;;;;;;;55.90;2.37;;;;;;;;;;5072140;28;20451;-67
2023/06/14 12:04:05;;;;;;;55.30;1.97;;;;;;;;;;5072092;28;20994;-67
2023/06/14 12:06:39;;;;;;;55.47;1.90;;;;;;;;;;5071815;28;20485;-66
2023/06/14 12:09:12;;;;;;;55.30;1.93;;;;;;;;;;5071255;28;20932;-67
2023/06/14 12:11:40;;;;;;;55.17;1.80;;;;;;;;;;5072317;28;20446;-67
2023/06/14 12:14:07;;;;;;;55.40;1.90;;;;;;;;;;5072009;28;20471;-67
2023/06/14 12:16:35;;;;;;;55.00;1.77;;;;;;;;;;5071693;28;20938;-67
2023/06/14 12:19:03;;;;;;;55.50;2.10;;;;;;;;;;5071237;28;20451;-67
2023/06/14 12:21:30;;;;;;;55.53;2.30;;;;;;;;;;5065588;28;20456;-68
2023/06/14 12:23:57;;;;;;;55.23;2.27;;;;;;;;;;5065545;28;20983;-67
2023/06/14 12:26:27;;;;;;;54.70;1.93;;;;;;;;;;5068664;28;20440;-67
2023/06/14 12:28:56;;;;;;;54.97;2.00;;;;;;;;;;5068000;28;20916;-67
2023/06/14 12:31:23;;;;;;;55.00;1.87;;;;;;;;;;5069106;28;20450;-67
2023/06/14 12:33:51;;;;;;;54.67;1.80;;;;;;;;;;5071279;28;20471;-66
2023/06/14 12:36:18;;;;;;;55.97;1.93;;;;;;;;;;5066125;28;20483;-68
2023/06/14 12:38:46;;;;;;;54.67;1.73;;;;;;;;;;5070977;28;20824;-68
2023/06/14 12:41:14;;;;;;;55.47;2.73;;;;;;;;;;5071489;28;20474;-68
2023/06/14 12:43:41;;;;;;;55.30;2.30;;;;;;;;;;5070798;28;20503;-67
2023/06/14 12:46:10;;;;;;;55.30;2.30;;;;;;;;;;5071154;28;21006;-68
2023/06/14 12:48:37;;;;;;;55.10;2.40;;;;;;;;;;5070716;28;20451;-66
2023/06/14 12:51:04;;;;;;;55.50;2.50;;;;;;;;;;5071405;28;20518;-68
2023/06/14 12:53:31;;;;;;;54.73;1.93;;;;;;;;;;5071261;28;20491;-67
2023/06/14 12:55:58;;;;;;;54.97;2.13;;;;;;;;;;5071156;28;20557;-67
2023/06/14 12:58:25;;;;;;;56.27;2.23;;;;;;;;;;5071306;28;20456;-66
2023/06/14 13:00:52;;;;;;;54.80;1.97;;;;;;;;;;5070697;28;20443;-67
2023/06/14 13:03:21;;;;;;;54.37;1.87;;;;;;;;;;5070976;28;20470;-67
2023/06/14 13:05:48;;;;;;;55.27;2.50;;;;;;;;;;5071197;28;20439;-67
2023/06/14 13:08:15;;;;;;;55.10;2.20;;;;;;;;;;5071206;28;20443;-68
2023/06/14 13:10:42;;;;;;;55.20;2.00;;;;;;;;;;5070696;28;20876;-67
2023/06/14 13:13:11;;;;;;;55.30;2.20;;;;;;;;;;5070983;28;20471;-67
2023/06/14 13:15:38;;;;;;;54.97;1.83;;;;;;;;;;5070800;28;20851;-66
2023/06/14 13:18:05;;;;;;;54.90;1.80;;;;;;;;;;5070097;28;20894;-67
2023/06/14 13:20:34;;;;;;;55.07;1.93;;;;;;;;;;5070449;28;20459;-67
2023/06/14 13:23:03;;;;;;;55.50;2.30;;;;;;;;;;5065537;28;20467;-67
2023/06/14 13:25:30;;;;;;;54.97;1.97;;;;;;;;;;5070973;28;20448;-68
2023/06/14 13:27:57;;;;;;;55.17;2.37;;;;;;;;;;5065350;28;20447;-68
2023/06/14 13:30:24;;;;;;;54.97;1.87;;;;;;;;;;5070087;28;20458;-67
2023/06/14 13:32:51;;;;;;;55.10;2.73;;;;;;;;;;5069365;28;20995;-67
2023/06/14 13:35:19;;;;;;;55.10;1.87;;;;;;;;;;5067590;28;20459;-67
2023/06/14 13:37:47;;;;;;;55.20;2.03;;;;;;;;;;5064979;28;20447;-67
2023/06/14 13:40:15;;;;;;;55.37;2.10;;;;;;;;;;5069912;28;21011;-67
2023/06/14 13:42:42;;;;;;;55.60;2.23;;;;;;;;;;5050580;28;20980;-68
2023/06/14 13:45:10;;;;;;;55.33;1.80;;;;;;;;;;5051768;28;20828;-66
2023/06/14 13:47:37;;;;;;;55.43;2.37;;;;;;;;;;5069915;28;20448;-67
2023/06/14 13:50:05;;;;;;;55.20;1.90;;;;;;;;;;5070095;28;20451;-67
2023/06/14 13:52:32;;;;;;;54.80;1.77;;;;;;;;;;5069837;28;20478;-67
2023/06/14 13:55:01;;;;;;;55.20;1.93;;;;;;;;;;5073765;28;21006;-67
2023/06/14 13:57:28;;;;;;;56.00;2.27;;;;;;;;;;5074417;28;20486;-67
2023/06/14 14:00:00;;;;;;;56.10;2.10;;;;;;;;;;5073938;28;20459;-67
2023/06/14 14:02:28;;;;;;;55.77;2.20;;;;;;;;;;5074496;28;20466;-67
2023/06/14 14:04:55;;;;;;;55.40;2.00;;;;;;;;;;5074312;28;20529;-67
2023/06/14 14:07:23;;;;;;;55.07;2.30;;;;;;;;;;5074085;28;20997;-67
2023/06/14 14:09:50;;;;;;;55.40;2.13;;;;;;;;;;5073737;28;20455;-67
2023/06/14 14:12:19;;;;;;;55.27;1.87;;;;;;;;;;5074339;28;20447;-68
2023/06/14 14:14:47;;;;;;;55.50;1.90;;;;;;;;;;5074616;28;20447;-67
2023/06/14 14:17:14;;;;;;;57.50;2.30;;;;;;;;;;5074191;28;20511;-67
2023/06/14 14:19:41;;;;;;;54.97;1.80;;;;;;;;;;5073931;28;20451;-67
2023/06/14 14:22:08;;;;;;;55.27;2.30;;;;;;;;;;5073776;28;20447;-67
2023/06/14 14:24:35;;;;;;;55.17;1.80;;;;;;;;;;5074213;28;20454;-67
2023/06/14 14:27:03;;;;;;;55.80;2.50;;;;;;;;;;5074058;28;20465;-67
2023/06/14 14:29:32;;;;;;;55.20;1.70;;;;;;;;;;5073259;28;20962;-67
2023/06/14 14:31:59;;;;;;;55.27;2.03;;;;;;;;;;5074062;28;20443;-67
2023/06/14 14:34:26;;;;;;;55.77;2.10;;;;;;;;;;5074051;28;20544;-66
2023/06/14 14:36:53;;;;;;;55.87;2.10;;;;;;;;;;5073492;28;20529;-67